sensor_id;sensor_type;location;lat;lon;timestamp;pressure;altitude;pressure_sealevel;temperature;humidity
19150;BME280;9707;49.158;8.632;2022-08-04T00:10:27;100040.03;;;31.83;31.78
19150;BME280;9707;49.158;8.632;2022-08-04T00:12:54;100033.69;;;31.83;31.74
19150;BME280;9707;49.158;8.632;2022-08-04T00:15:20;100038.53;;;31.81;32.21
19150;BME280;9707;49.158;8.632;2022-08-04T00:20:18;100035.13;;;31.79;32.29
19150;BME280;9707;49.158;8.632;2022-08-04T00:22:46;100030.69;;;31.78;32.18
19150;BME280;9707;49.158;8.632;2022-08-04T00:25:11;100044.47;;;31.78;32.06
19150;BME280;9707;49.158;8.632;2022-08-04T00:27:37;100040.00;;;31.77;32.41
19150;BME280;9707;49.158;8.632;2022-08-04T00:30:04;100040.22;;;31.75;32.01
19150;BME280;9707;49.158;8.632;2022-08-04T00:32:30;100040.22;;;31.75;32.17
19150;BME280;9707;49.158;8.632;2022-08-04T00:34:57;100040.41;;;31.74;31.91
19150;BME280;9707;49.158;8.632;2022-08-04T00:37:24;100047.81;;;31.73;31.79
19150;BME280;9707;49.158;8.632;2022-08-04T00:39:53;100045.25;;;31.72;31.86
19150;BME280;9707;49.158;8.632;2022-08-04T00:50:17;100043.09;;;31.67;32.21
19150;BME280;9707;49.158;8.632;2022-08-04T00:55:22;100046.69;;;31.68;32.24
19150;BME280;9707;49.158;8.632;2022-08-04T01:00:32;100040.75;;;31.64;32.26
19150;BME280;9707;49.158;8.632;2022-08-04T01:15:05;100054.03;;;31.54;31.75
19150;BME280;9707;49.158;8.632;2022-08-04T01:20:09;100053.16;;;31.54;32.06
19150;BME280;9707;49.158;8.632;2022-08-04T01:30:48;100044.47;;;31.50;32.87
19150;BME280;9707;49.158;8.632;2022-08-04T01:33:16;100046.34;;;31.50;32.68
19150;BME280;9707;49.158;8.632;2022-08-04T01:35:47;100040.84;;;31.50;32.37
19150;BME280;9707;49.158;8.632;2022-08-04T01:38:29;100042.53;;;31.51;32.17
19150;BME280;9707;49.158;8.632;2022-08-04T01:41:05;100042.53;;;31.51;32.48
19150;BME280;9707;49.158;8.632;2022-08-04T01:43:34;100040.84;;;31.50;32.56
19150;BME280;9707;49.158;8.632;2022-08-04T01:46:03;100035.34;;;31.50;32.34
19150;BME280;9707;49.158;8.632;2022-08-04T01:48:29;100033.66;;;31.49;32.33
19150;BME280;9707;49.158;8.632;2022-08-04T01:51:04;100034.91;;;31.46;32.21
19150;BME280;9707;49.158;8.632;2022-08-04T01:53:32;100029.19;;;31.48;32.00
19150;BME280;9707;49.158;8.632;2022-08-04T01:56:00;100029.38;;;31.46;32.29
19150;BME280;9707;49.158;8.632;2022-08-04T01:58:28;100029.38;;;31.46;31.98
19150;BME280;9707;49.158;8.632;2022-08-04T02:01:11;100034.03;;;31.46;32.47
19150;BME280;9707;49.158;8.632;2022-08-04T02:03:39;100030.66;;;31.44;32.36
19150;BME280;9707;49.158;8.632;2022-08-04T02:06:17;100030.66;;;31.44;32.18
19150;BME280;9707;49.158;8.632;2022-08-04T02:08:50;100030.00;;;31.42;32.23
19150;BME280;9707;49.158;8.632;2022-08-04T02:11:21;100025.56;;;31.41;31.89
19150;BME280;9707;49.158;8.632;2022-08-04T02:14:01;100024.69;;;31.40;32.13
19150;BME280;9707;49.158;8.632;2022-08-04T02:16:46;100024.88;;;31.39;31.95
19150;BME280;9707;49.158;8.632;2022-08-04T02:19:31;100023.19;;;31.38;32.38
19150;BME280;9707;49.158;8.632;2022-08-04T02:22:08;100014.31;;;31.36;32.16
19150;BME280;9707;49.158;8.632;2022-08-04T02:24:42;100022.56;;;31.36;32.41
19150;BME280;9707;49.158;8.632;2022-08-04T02:27:11;100023.59;;;31.35;32.54
19150;BME280;9707;49.158;8.632;2022-08-04T02:30:03;100020.84;;;31.35;32.06
19150;BME280;9707;49.158;8.632;2022-08-04T02:32:32;100013.00;;;31.32;32.26
19150;BME280;9707;49.158;8.632;2022-08-04T02:35:12;100030.16;;;31.34;32.12
19150;BME280;9707;49.158;8.632;2022-08-04T02:37:46;100015.75;;;31.32;32.07
19150;BME280;9707;49.158;8.632;2022-08-04T02:40:11;100022.31;;;31.31;32.71
19150;BME280;9707;49.158;8.632;2022-08-04T02:42:37;100018.69;;;31.30;32.64
19150;BME280;9707;49.158;8.632;2022-08-04T02:45:04;100018.69;;;31.30;32.77
19150;BME280;9707;49.158;8.632;2022-08-04T02:47:32;100028.66;;;31.31;32.73
19150;BME280;9707;49.158;8.632;2022-08-04T02:50:00;100025.06;;;31.31;32.44
19150;BME280;9707;49.158;8.632;2022-08-04T02:52:28;100021.25;;;31.32;32.48
19150;BME280;9707;49.158;8.632;2022-08-04T02:54:55;100018.69;;;31.30;32.54
19150;BME280;9707;49.158;8.632;2022-08-04T02:57:26;100021.44;;;31.30;32.31
19150;BME280;9707;49.158;8.632;2022-08-04T03:05:50;100022.88;;;31.26;32.31
19150;BME280;9707;49.158;8.632;2022-08-04T03:08:58;100022.06;;;31.26;32.44
19150;BME280;9707;49.158;8.632;2022-08-04T03:22:35;100017.72;;;31.17;32.15
19150;BME280;9707;49.158;8.632;2022-08-04T03:25:13;100026.16;;;31.15;31.96
19150;BME280;9707;49.158;8.632;2022-08-04T03:31:19;100025.31;;;31.15;32.66
19150;BME280;9707;49.158;8.632;2022-08-04T03:34:02;100020.84;;;31.14;32.92
19150;BME280;9707;49.158;8.632;2022-08-04T03:43:22;100026.97;;;31.09;32.11
19150;BME280;9707;49.158;8.632;2022-08-04T03:51:18;100029.28;;;31.06;32.08
19150;BME280;9707;49.158;8.632;2022-08-04T04:08:25;100044.41;;;30.95;31.98
19150;BME280;9707;49.158;8.632;2022-08-04T04:13:33;100040.16;;;30.93;32.27
19150;BME280;9707;49.158;8.632;2022-08-04T04:19:03;100036.94;;;30.89;31.91
19150;BME280;9707;49.158;8.632;2022-08-04T04:21:52;100036.06;;;30.89;32.31
19150;BME280;9707;49.158;8.632;2022-08-04T04:24:43;100035.44;;;30.87;32.35
19150;BME280;9707;49.158;8.632;2022-08-04T04:30:22;100043.44;;;30.82;32.21
19150;BME280;9707;49.158;8.632;2022-08-04T04:35:56;100043.81;;;30.79;32.28
19150;BME280;9707;49.158;8.632;2022-08-04T04:44:14;100044.22;;;30.76;32.39
19150;BME280;9707;49.158;8.632;2022-08-04T04:46:59;100059.84;;;30.75;32.61
19150;BME280;9707;49.158;8.632;2022-08-04T04:49:40;100057.28;;;30.74;32.10
19150;BME280;9707;49.158;8.632;2022-08-04T04:52:17;100060.03;;;30.74;32.48
19150;BME280;9707;49.158;8.632;2022-08-04T04:55:03;100055.59;;;30.73;32.48
19150;BME280;9707;49.158;8.632;2022-08-04T04:57:35;100066.41;;;30.74;32.84
19150;BME280;9707;49.158;8.632;2022-08-04T05:00:09;100056.25;;;30.75;32.80
19150;BME280;9707;49.158;8.632;2022-08-04T05:02:42;100059.00;;;30.75;33.24
19150;BME280;9707;49.158;8.632;2022-08-04T05:05:23;100055.22;;;30.76;32.77
19150;BME280;9707;49.158;8.632;2022-08-04T05:18:39;100064.50;;;30.75;32.65
19150;BME280;9707;49.158;8.632;2022-08-04T05:24:03;100074.84;;;30.73;32.99
19150;BME280;9707;49.158;8.632;2022-08-04T05:26:34;100067.47;;;30.73;32.85
19150;BME280;9707;49.158;8.632;2022-08-04T05:29:05;100059.22;;;30.73;32.70
19150;BME280;9707;49.158;8.632;2022-08-04T05:31:35;100068.28;;;30.74;32.61
19150;BME280;9707;49.158;8.632;2022-08-04T05:34:12;100072.97;;;30.73;32.90
19150;BME280;9707;49.158;8.632;2022-08-04T05:36:43;100068.53;;;30.72;32.76
19150;BME280;9707;49.158;8.632;2022-08-04T05:39:19;100070.41;;;30.72;33.01
19150;BME280;9707;49.158;8.632;2022-08-04T05:41:46;100075.91;;;30.72;32.99
19150;BME280;9707;49.158;8.632;2022-08-04T05:44:18;100077.59;;;30.73;32.70
19150;BME280;9707;49.158;8.632;2022-08-04T05:46:47;100079.53;;;30.72;33.24
19150;BME280;9707;49.158;8.632;2022-08-04T05:49:14;100080.34;;;30.73;33.25
19150;BME280;9707;49.158;8.632;2022-08-04T05:51:41;100077.41;;;30.74;33.26
19150;BME280;9707;49.158;8.632;2022-08-04T05:54:09;100083.75;;;30.75;33.03
19150;BME280;9707;49.158;8.632;2022-08-04T05:56:35;100089.91;;;30.77;32.85
19150;BME280;9707;49.158;8.632;2022-08-04T05:59:03;100087.16;;;30.77;33.43
19150;BME280;9707;49.158;8.632;2022-08-04T06:01:30;100083.38;;;30.78;33.40
19150;BME280;9707;49.158;8.632;2022-08-04T06:03:57;100086.75;;;30.80;33.33
19150;BME280;9707;49.158;8.632;2022-08-04T06:06:24;100084.00;;;30.80;33.19
19150;BME280;9707;49.158;8.632;2022-08-04T06:08:50;100089.50;;;30.80;32.98
19150;BME280;9707;49.158;8.632;2022-08-04T06:11:17;100090.38;;;30.80;33.02
19150;BME280;9707;49.158;8.632;2022-08-04T06:13:49;100090.38;;;30.80;33.45
19150;BME280;9707;49.158;8.632;2022-08-04T06:16:17;100092.94;;;30.82;33.58
19150;BME280;9707;49.158;8.632;2022-08-04T06:18:46;100086.38;;;30.83;33.55
19150;BME280;9707;49.158;8.632;2022-08-04T06:21:13;100085.31;;;30.84;33.40
19150;BME280;9707;49.158;8.632;2022-08-04T06:23:41;100084.28;;;30.85;33.95
19150;BME280;9707;49.158;8.632;2022-08-04T06:26:09;100085.31;;;30.84;33.98
19150;BME280;9707;49.158;8.632;2022-08-04T06:28:35;100083.25;;;30.86;33.73
19150;BME280;9707;49.158;8.632;2022-08-04T06:31:02;100083.03;;;30.87;33.97
19150;BME280;9707;49.158;8.632;2022-08-04T06:33:30;100083.03;;;30.87;33.98
19150;BME280;9707;49.158;8.632;2022-08-04T06:36:00;100083.91;;;30.88;33.66
19150;BME280;9707;49.158;8.632;2022-08-04T06:38:28;100092.78;;;30.90;33.94
19150;BME280;9707;49.158;8.632;2022-08-04T06:40:55;100093.66;;;30.90;33.73
19150;BME280;9707;49.158;8.632;2022-08-04T06:43:25;100092.59;;;30.91;33.59
19150;BME280;9707;49.158;8.632;2022-08-04T06:45:51;100094.09;;;30.94;33.86
19150;BME280;9707;49.158;8.632;2022-08-04T06:48:18;100094.09;;;30.94;33.68
19150;BME280;9707;49.158;8.632;2022-08-04T06:50:49;100089.47;;;30.94;33.31
19150;BME280;9707;49.158;8.632;2022-08-04T06:53:16;100089.28;;;30.96;33.30
19150;BME280;9707;49.158;8.632;2022-08-04T06:55:44;100089.91;;;30.98;33.24
19150;BME280;9707;49.158;8.632;2022-08-04T06:58:10;100096.94;;;31.00;33.28
19150;BME280;9707;49.158;8.632;2022-08-04T07:00:38;100095.88;;;31.01;33.45
19150;BME280;9707;49.158;8.632;2022-08-04T07:03:05;100094.63;;;31.04;33.45
19150;BME280;9707;49.158;8.632;2022-08-04T07:05:31;100088.06;;;31.05;33.10
19150;BME280;9707;49.158;8.632;2022-08-04T07:07:58;100093.38;;;31.06;33.03
19150;BME280;9707;49.158;8.632;2022-08-04T07:10:27;100095.94;;;31.08;32.95
19150;BME280;9707;49.158;8.632;2022-08-04T07:12:55;100100.41;;;31.09;32.94
19150;BME280;9707;49.158;8.632;2022-08-04T07:15:21;100088.34;;;31.10;33.34
19150;BME280;9707;49.158;8.632;2022-08-04T07:17:48;100089.19;;;31.10;33.18
19150;BME280;9707;49.158;8.632;2022-08-04T07:20:14;100093.44;;;31.13;33.06
19150;BME280;9707;49.158;8.632;2022-08-04T07:22:40;100090.50;;;31.14;33.22
19150;BME280;9707;49.158;8.632;2022-08-04T07:25:10;100082.25;;;31.14;33.11
19150;BME280;9707;49.158;8.632;2022-08-04T07:27:37;100083.75;;;31.17;33.07
19150;BME280;9707;49.158;8.632;2022-08-04T07:30:05;100085.47;;;31.18;33.09
19150;BME280;9707;49.158;8.632;2022-08-04T07:32:30;100086.13;;;31.20;33.45
19150;BME280;9707;49.158;8.632;2022-08-04T07:34:56;100082.34;;;31.21;33.17
19150;BME280;9707;49.158;8.632;2022-08-04T07:37:22;100094.00;;;31.23;32.60
19150;BME280;9707;49.158;8.632;2022-08-04T07:39:47;100096.56;;;31.24;32.81
19150;BME280;9707;49.158;8.632;2022-08-04T07:42:12;100091.88;;;31.25;32.86
19150;BME280;9707;49.158;8.632;2022-08-04T07:44:38;100095.31;;;31.27;32.94
19150;BME280;9707;49.158;8.632;2022-08-04T07:47:05;100092.16;;;31.30;33.00
19150;BME280;9707;49.158;8.632;2022-08-04T07:49:31;100093.88;;;31.31;32.79
19150;BME280;9707;49.158;8.632;2022-08-04T07:51:58;100097.47;;;31.31;32.62
19150;BME280;9707;49.158;8.632;2022-08-04T07:54:23;100087.13;;;31.33;32.57
19150;BME280;9707;49.158;8.632;2022-08-04T07:56:49;100101.53;;;31.35;32.46
19150;BME280;9707;49.158;8.632;2022-08-04T07:59:18;100099.41;;;31.37;32.60
19150;BME280;9707;49.158;8.632;2022-08-04T08:01:45;100099.03;;;31.40;32.31
19150;BME280;9707;49.158;8.632;2022-08-04T08:04:11;100102.41;;;31.42;32.56
19150;BME280;9707;49.158;8.632;2022-08-04T08:06:38;100094.81;;;31.44;32.72
19150;BME280;9707;49.158;8.632;2022-08-04T08:09:13;100088.06;;;31.47;32.11
19150;BME280;9707;49.158;8.632;2022-08-04T08:11:39;100093.56;;;31.47;31.94
19150;BME280;9707;49.158;8.632;2022-08-04T08:14:05;100093.16;;;31.50;31.82
19150;BME280;9707;49.158;8.632;2022-08-04T08:16:33;100092.97;;;31.51;31.87
19150;BME280;9707;49.158;8.632;2022-08-04T08:18:59;100090.00;;;31.53;32.08
19150;BME280;9707;49.158;8.632;2022-08-04T08:21:25;100097.84;;;31.56;32.05
19150;BME280;9707;49.158;8.632;2022-08-04T08:23:50;100091.31;;;31.57;32.32
19150;BME280;9707;49.158;8.632;2022-08-04T08:26:16;100091.97;;;31.59;32.32
19150;BME280;9707;49.158;8.632;2022-08-04T08:28:42;100091.78;;;31.60;32.24
19150;BME280;9707;49.158;8.632;2022-08-04T08:31:07;100092.41;;;31.62;32.62
19150;BME280;9707;49.158;8.632;2022-08-04T08:33:33;100086.69;;;31.64;32.33
19150;BME280;9707;49.158;8.632;2022-08-04T08:44:09;100083.34;;;31.68;32.24
19150;BME280;9707;49.158;8.632;2022-08-04T08:52:48;100087.38;;;31.72;32.08
19150;BME280;9707;49.158;8.632;2022-08-04T08:58:19;100086.84;;;31.77;32.39
19150;BME280;9707;49.158;8.632;2022-08-04T09:11:09;100091.09;;;31.86;31.73
19150;BME280;9707;49.158;8.632;2022-08-04T09:13:44;100085.41;;;31.87;31.63
19150;BME280;9707;49.158;8.632;2022-08-04T09:16:30;100092.41;;;31.90;31.65
19150;BME280;9707;49.158;8.632;2022-08-04T09:19:14;100083.09;;;31.91;31.74
19150;BME280;9707;49.158;8.632;2022-08-04T09:21:58;100082.69;;;31.94;31.59
19150;BME280;9707;49.158;8.632;2022-08-04T09:27:36;100082.50;;;31.95;31.99
19150;BME280;9707;49.158;8.632;2022-08-04T09:30:09;100076.78;;;31.97;32.04
19150;BME280;9707;49.158;8.632;2022-08-04T09:35:33;100087.38;;;32.00;31.85
19150;BME280;9707;49.158;8.632;2022-08-04T09:41:05;100087.81;;;32.03;31.50
19150;BME280;9707;49.158;8.632;2022-08-04T09:43:57;100076.59;;;32.05;31.39
19150;BME280;9707;49.158;8.632;2022-08-04T09:46:36;100082.78;;;32.07;31.71
19150;BME280;9707;49.158;8.632;2022-08-04T09:49:13;100085.31;;;32.08;31.57
19150;BME280;9707;49.158;8.632;2022-08-04T10:00:09;100081.53;;;32.16;31.57
19150;BME280;9707;49.158;8.632;2022-08-04T10:02:41;100072.00;;;32.18;31.88
19150;BME280;9707;49.158;8.632;2022-08-04T10:05:13;100067.16;;;32.20;31.59
19150;BME280;9707;49.158;8.632;2022-08-04T10:08:04;100067.78;;;32.22;31.35
19150;BME280;9707;49.158;8.632;2022-08-04T10:10:58;100066.72;;;32.23;31.81
19150;BME280;9707;49.158;8.632;2022-08-04T10:16:05;100059.97;;;32.26;31.48
19150;BME280;9707;49.158;8.632;2022-08-04T10:21:21;100060.41;;;32.29;31.22
19150;BME280;9707;49.158;8.632;2022-08-04T10:27:00;100055.56;;;32.31;31.06
19150;BME280;9707;49.158;8.632;2022-08-04T10:29:47;100056.19;;;32.33;30.55
19150;BME280;9707;49.158;8.632;2022-08-04T10:35:16;100047.53;;;32.36;30.62
19150;BME280;9707;49.158;8.632;2022-08-04T10:40:29;100041.38;;;32.41;30.34
19150;BME280;9707;49.158;8.632;2022-08-04T10:45:37;100031.63;;;32.45;30.03
19150;BME280;9707;49.158;8.632;2022-08-04T10:48:23;100038.66;;;32.47;30.71
19150;BME280;9707;49.158;8.632;2022-08-04T10:51:05;100033.75;;;32.49;30.46
19150;BME280;9707;49.158;8.632;2022-08-04T10:53:37;100033.34;;;32.52;30.37
19150;BME280;9707;49.158;8.632;2022-08-04T10:56:23;100030.41;;;32.54;30.53
19150;BME280;9707;49.158;8.632;2022-08-04T10:58:58;100027.44;;;32.55;30.61
19150;BME280;9707;49.158;8.632;2022-08-04T11:01:34;100026.16;;;32.58;30.67
19150;BME280;9707;49.158;8.632;2022-08-04T11:04:04;100029.56;;;32.60;30.51
19150;BME280;9707;49.158;8.632;2022-08-04T11:06:33;100030.41;;;32.60;29.94
19150;BME280;9707;49.158;8.632;2022-08-04T11:08:59;100029.97;;;32.63;30.36
19150;BME280;9707;49.158;8.632;2022-08-04T11:11:38;100025.31;;;32.64;29.69
19150;BME280;9707;49.158;8.632;2022-08-04T11:14:30;100021.50;;;32.65;30.06
19150;BME280;9707;49.158;8.632;2022-08-04T11:17:05;100028.72;;;32.66;29.96
19150;BME280;9707;49.158;8.632;2022-08-04T11:30:11;100016.84;;;32.72;30.09
19150;BME280;9707;49.158;8.632;2022-08-04T11:33:00;100020.25;;;32.74;29.75
19150;BME280;9707;49.158;8.632;2022-08-04T11:35:43;100016.44;;;32.75;29.91
19150;BME280;9707;49.158;8.632;2022-08-04T11:38:24;100013.47;;;32.76;29.52
19150;BME280;9707;49.158;8.632;2022-08-04T11:40:56;100019.81;;;32.77;29.35
19150;BME280;9707;49.158;8.632;2022-08-04T11:43:28;100013.06;;;32.79;29.20
19150;BME280;9707;49.158;8.632;2022-08-04T11:46:00;100009.25;;;32.80;28.95
19150;BME280;9707;49.158;8.632;2022-08-04T11:48:44;100024.56;;;32.83;28.65
19150;BME280;9707;49.158;8.632;2022-08-04T11:51:12;100011.78;;;32.82;28.33
19150;BME280;9707;49.158;8.632;2022-08-04T11:53:39;100009.25;;;32.87;29.23
19150;BME280;9707;49.158;8.632;2022-08-04T11:56:13;100011.59;;;32.90;28.88
19150;BME280;9707;49.158;8.632;2022-08-04T11:58:40;100010.53;;;32.91;27.88
19150;BME280;9707;49.158;8.632;2022-08-04T12:04:34;100005.63;;;32.93;28.46
19150;BME280;9707;49.158;8.632;2022-08-04T12:07:11;99995.25;;;32.95;28.86
19150;BME280;9707;49.158;8.632;2022-08-04T12:12:28;99986.75;;;33.03;28.64
19150;BME280;9707;49.158;8.632;2022-08-04T12:17:37;99988.00;;;33.00;26.40
19150;BME280;9707;49.158;8.632;2022-08-04T12:20:06;99989.28;;;33.04;26.71
19150;BME280;9707;49.158;8.632;2022-08-04T12:22:36;99988.88;;;33.07;27.79
19150;BME280;9707;49.158;8.632;2022-08-04T12:25:13;99982.09;;;33.10;28.12
19150;BME280;9707;49.158;8.632;2022-08-04T12:27:57;99989.09;;;33.12;26.84
19150;BME280;9707;49.158;8.632;2022-08-04T12:30:24;99982.31;;;33.15;26.99
19150;BME280;9707;49.158;8.632;2022-08-04T12:52:19;99968.25;;;33.23;27.24
19150;BME280;9707;49.158;8.632;2022-08-04T12:54:51;99966.78;;;33.27;27.41
19150;BME280;9707;49.158;8.632;2022-08-04T12:57:19;99969.97;;;33.30;26.28
19150;BME280;9707;49.158;8.632;2022-08-04T12:59:45;99960.41;;;33.33;27.18
19150;BME280;9707;49.158;8.632;2022-08-04T13:02:17;99968.28;;;33.36;27.28
19150;BME280;9707;49.158;8.632;2022-08-04T13:04:43;99973.38;;;33.39;25.93
19150;BME280;9707;49.158;8.632;2022-08-04T13:07:15;99973.16;;;33.40;26.92
19150;BME280;9707;49.158;8.632;2022-08-04T13:09:43;99968.06;;;33.44;27.22
19150;BME280;9707;49.158;8.632;2022-08-04T13:12:14;99944.44;;;33.48;26.98
19150;BME280;9707;49.158;8.632;2022-08-04T13:14:42;99948.94;;;33.49;26.55
19150;BME280;9707;49.158;8.632;2022-08-04T13:17:10;99948.06;;;33.48;26.11
19150;BME280;9707;49.158;8.632;2022-08-04T13:19:36;99943.84;;;33.46;26.20
19150;BME280;9707;49.158;8.632;2022-08-04T13:22:02;99938.50;;;33.51;25.54
19150;BME280;9707;49.158;8.632;2022-08-04T13:24:30;99937.44;;;33.52;25.58
19150;BME280;9707;49.158;8.632;2022-08-04T13:26:59;99938.09;;;33.54;26.45
19150;BME280;9707;49.158;8.632;2022-08-04T13:29:40;99933.19;;;33.56;26.20
19150;BME280;9707;49.158;8.632;2022-08-04T13:32:07;99931.91;;;33.58;26.46
19150;BME280;9707;49.158;8.632;2022-08-04T13:34:34;99938.91;;;33.61;25.93
19150;BME280;9707;49.158;8.632;2022-08-04T13:37:01;99926.56;;;33.63;26.68
19150;BME280;9707;49.158;8.632;2022-08-04T13:39:28;99926.34;;;33.65;25.94
19150;BME280;9707;49.158;8.632;2022-08-04T13:41:55;99925.28;;;33.66;25.85
19150;BME280;9707;49.158;8.632;2022-08-04T13:44:25;99918.69;;;33.67;26.81
19150;BME280;9707;49.158;8.632;2022-08-04T13:46:58;99905.47;;;33.69;26.66
19150;BME280;9707;49.158;8.632;2022-08-04T13:49:24;99909.72;;;33.71;27.16
19150;BME280;9707;49.158;8.632;2022-08-04T13:51:55;99907.81;;;33.72;26.89
19150;BME280;9707;49.158;8.632;2022-08-04T13:54:22;99911.19;;;33.74;26.81
19150;BME280;9707;49.158;8.632;2022-08-04T13:56:54;99898.47;;;33.73;26.09
19150;BME280;9707;49.158;8.632;2022-08-04T13:59:25;99898.47;;;33.73;26.05
19150;BME280;9707;49.158;8.632;2022-08-04T14:02:03;99893.59;;;33.75;25.81
19150;BME280;9707;49.158;8.632;2022-08-04T14:04:30;99895.47;;;33.74;24.76
19150;BME280;9707;49.158;8.632;2022-08-04T14:07:17;99885.28;;;33.75;25.93
19150;BME280;9707;49.158;8.632;2022-08-04T14:09:43;99882.97;;;33.78;27.27
19150;BME280;9707;49.158;8.632;2022-08-04T14:12:10;99886.34;;;33.80;26.16
19150;BME280;9707;49.158;8.632;2022-08-04T14:14:50;99886.13;;;33.82;26.16
19150;BME280;9707;49.158;8.632;2022-08-04T14:17:17;99881.22;;;33.84;27.27
19150;BME280;9707;49.158;8.632;2022-08-04T14:27:54;99859.53;;;33.87;26.46
19150;BME280;9707;49.158;8.632;2022-08-04T14:30:31;99867.59;;;33.89;26.20
19150;BME280;9707;49.158;8.632;2022-08-04T14:33:06;99873.97;;;33.89;26.28
19150;BME280;9707;49.158;8.632;2022-08-04T14:35:33;99870.13;;;33.90;25.72
19150;BME280;9707;49.158;8.632;2022-08-04T14:38:02;99860.78;;;33.91;25.57
19150;BME280;9707;49.158;8.632;2022-08-04T14:40:31;99862.50;;;33.92;24.50
19150;BME280;9707;49.158;8.632;2022-08-04T14:42:57;99858.44;;;33.95;24.65
19150;BME280;9707;49.158;8.632;2022-08-04T14:45:41;99859.66;;;33.99;25.59
19150;BME280;9707;49.158;8.632;2022-08-04T14:48:12;99851.81;;;34.02;24.97
19150;BME280;9707;49.158;8.632;2022-08-04T14:50:43;99849.66;;;34.04;24.29
19150;BME280;9707;49.158;8.632;2022-08-04T14:53:20;99851.97;;;34.07;25.38
19150;BME280;9707;49.158;8.632;2022-08-04T14:55:51;99846.84;;;34.11;25.85
19150;BME280;9707;49.158;8.632;2022-08-04T15:00:52;99843.19;;;34.17;26.70
19150;BME280;9707;49.158;8.632;2022-08-04T15:03:19;99842.97;;;34.18;25.78
19150;BME280;9707;49.158;8.632;2022-08-04T15:05:46;99838.91;;;34.21;25.80
19150;BME280;9707;49.158;8.632;2022-08-04T15:08:12;99841.44;;;34.22;26.09
19150;BME280;9707;49.158;8.632;2022-08-04T15:10:39;99837.59;;;34.23;25.00
19150;BME280;9707;49.158;8.632;2022-08-04T15:13:06;99835.66;;;34.24;25.67
19150;BME280;9707;49.158;8.632;2022-08-04T15:15:32;99840.16;;;34.25;24.07
19150;BME280;9707;49.158;8.632;2022-08-04T15:17:58;99832.47;;;34.27;24.54
19150;BME280;9707;49.158;8.632;2022-08-04T15:20:23;99838.91;;;34.28;24.41
19150;BME280;9707;49.158;8.632;2022-08-04T15:22:49;99839.28;;;34.31;24.69
19150;BME280;9707;49.158;8.632;2022-08-04T15:25:15;99828.84;;;34.33;24.92
19150;BME280;9707;49.158;8.632;2022-08-04T15:27:41;99838.38;;;34.37;24.24
19150;BME280;9707;49.158;8.632;2022-08-04T15:30:10;99836.22;;;34.39;24.57
19150;BME280;9707;49.158;8.632;2022-08-04T15:32:40;99832.38;;;34.40;24.51
19150;BME280;9707;49.158;8.632;2022-08-04T15:35:11;99842.16;;;34.42;24.95
19150;BME280;9707;49.158;8.632;2022-08-04T15:40:27;99827.66;;;34.47;24.10
19150;BME280;9707;49.158;8.632;2022-08-04T15:43:15;99838.25;;;34.50;24.87
19150;BME280;9707;49.158;8.632;2022-08-04T15:45:49;99825.06;;;34.52;25.21
19150;BME280;9707;49.158;8.632;2022-08-04T15:53:28;99822.25;;;34.58;24.72
19150;BME280;9707;49.158;8.632;2022-08-04T15:55:54;99808.16;;;34.60;25.58
19150;BME280;9707;49.158;8.632;2022-08-04T15:58:20;99811.34;;;34.63;25.12
19150;BME280;9707;49.158;8.632;2022-08-04T16:16:44;99796.72;;;34.81;23.28
19150;BME280;9707;49.158;8.632;2022-08-04T16:20:11;99799.00;;;34.84;22.32
19150;BME280;9707;49.158;8.632;2022-08-04T16:24:58;99794.56;;;34.83;22.96
19150;BME280;9707;49.158;8.632;2022-08-04T16:27:37;99795.41;;;34.84;22.50
19150;BME280;9707;49.158;8.632;2022-08-04T16:30:05;99789.03;;;34.83;23.33
19150;BME280;9707;49.158;8.632;2022-08-04T16:32:39;99790.72;;;34.84;22.41
19150;BME280;9707;49.158;8.632;2022-08-04T16:35:20;99784.34;;;34.84;22.59
19150;BME280;9707;49.158;8.632;2022-08-04T16:37:46;99787.34;;;34.82;23.01
19150;BME280;9707;49.158;8.632;2022-08-04T16:43:01;99780.94;;;34.82;22.31
19150;BME280;9707;49.158;8.632;2022-08-04T16:45:54;99778.19;;;34.82;23.07
19150;BME280;9707;49.158;8.632;2022-08-04T16:48:28;99776.72;;;34.79;23.01
19150;BME280;9707;49.158;8.632;2022-08-04T16:53:32;99780.34;;;34.80;23.12
19150;BME280;9707;49.158;8.632;2022-08-04T16:55:57;99773.13;;;34.79;23.34
19150;BME280;9707;49.158;8.632;2022-08-04T16:58:34;99772.25;;;34.78;23.25
19150;BME280;9707;49.158;8.632;2022-08-04T17:01:10;99775.03;;;34.78;23.28
19150;BME280;9707;49.158;8.632;2022-08-04T17:03:37;99778.88;;;34.77;23.62
19150;BME280;9707;49.158;8.632;2022-08-04T17:06:09;99779.69;;;34.78;23.29
19150;BME280;9707;49.158;8.632;2022-08-04T17:08:35;99775.44;;;34.75;23.53
19150;BME280;9707;49.158;8.632;2022-08-04T17:11:03;99773.16;;;34.72;23.14
19150;BME280;9707;49.158;8.632;2022-08-04T17:15:56;99772.06;;;34.73;23.49
19150;BME280;9707;49.158;8.632;2022-08-04T17:18:26;99773.38;;;34.70;23.86
19150;BME280;9707;49.158;8.632;2022-08-04T17:20:54;99772.78;;;34.68;24.21
19150;BME280;9707;49.158;8.632;2022-08-04T17:23:27;99774.69;;;34.68;23.53
19150;BME280;9707;49.158;8.632;2022-08-04T17:25:54;99775.75;;;34.67;24.20
19150;BME280;9707;49.158;8.632;2022-08-04T17:28:20;99775.97;;;34.65;24.54
19150;BME280;9707;49.158;8.632;2022-08-04T17:30:48;99766.22;;;34.63;24.40
19150;BME280;9707;49.158;8.632;2022-08-04T17:33:15;99766.22;;;34.63;23.93
19150;BME280;9707;49.158;8.632;2022-08-04T17:35:41;99767.28;;;34.62;24.14
19150;BME280;9707;49.158;8.632;2022-08-04T17:38:07;99767.53;;;34.60;24.63
19150;BME280;9707;49.158;8.632;2022-08-04T17:40:32;99770.50;;;34.59;25.52
19150;BME280;9707;49.158;8.632;2022-08-04T17:43:05;99770.50;;;34.59;25.10
19150;BME280;9707;49.158;8.632;2022-08-04T17:45:30;99773.91;;;34.61;24.37
19150;BME280;9707;49.158;8.632;2022-08-04T17:47:56;99772.81;;;34.62;24.18
19150;BME280;9707;49.158;8.632;2022-08-04T17:50:29;99762.38;;;34.64;25.11
19150;BME280;9707;49.158;8.632;2022-08-04T17:53:00;99767.47;;;34.67;25.27
19150;BME280;9707;49.158;8.632;2022-08-04T17:55:45;99770.81;;;34.69;25.67
19150;BME280;9707;49.158;8.632;2022-08-04T17:58:21;99768.06;;;34.69;25.78